createdAt,value
2022-11-24T00:02:12.236Z,93.74
2022-11-24T00:05:15.276Z,93.71
2022-11-24T00:08:18.576Z,93.76
2022-11-24T00:11:24.501Z,94.27
2022-11-24T00:14:27.450Z,93.66
2022-11-24T00:17:30.416Z,92.89
2022-11-24T00:20:33.055Z,93.20
2022-11-24T00:23:36.334Z,93.39
2022-11-24T00:26:39.054Z,93.26
2022-11-24T00:29:41.989Z,93.37
2022-11-24T00:32:44.650Z,93.28
2022-11-24T00:35:55.116Z,93.45
2022-11-24T00:39:05.967Z,93.13
2022-11-24T00:42:08.845Z,92.72
2022-11-24T00:45:14.065Z,92.84
2022-11-24T00:48:17.410Z,92.63
2022-11-24T00:51:22.317Z,92.82
2022-11-24T00:54:25.342Z,92.77
2022-11-24T00:57:29.245Z,92.92
2022-11-24T01:00:32.153Z,93.13
2022-11-24T01:03:36.826Z,93.24
2022-11-24T01:06:39.785Z,93.22
2022-11-24T01:09:43.433Z,93.36
2022-11-24T01:12:46.574Z,93.28
2022-11-24T01:15:49.242Z,93.63
2022-11-24T01:18:53.652Z,93.50
2022-11-24T01:21:56.313Z,93.67
2022-11-24T01:24:59.368Z,93.80
2022-11-24T01:28:02.462Z,93.77
2022-11-24T01:31:07.580Z,93.87
2022-11-24T01:34:10.228Z,93.74
2022-11-24T01:37:13.218Z,93.69
2022-11-24T01:40:16.147Z,93.86
2022-11-24T01:43:21.549Z,94.36
2022-11-24T01:46:42.166Z,94.19
2022-11-24T01:49:59.140Z,94.14
2022-11-24T01:53:02.314Z,93.97
2022-11-24T01:56:06.787Z,94.33
2022-11-24T01:59:14.505Z,94.25
2022-11-24T02:02:18.083Z,94.25
2022-11-24T02:05:28.604Z,94.32
2022-11-24T02:08:40.697Z,94.26
2022-11-24T02:11:44.790Z,94.26
2022-11-24T02:14:47.785Z,93.99
2022-11-24T02:17:50.629Z,93.94
2022-11-24T02:20:53.575Z,94.13
2022-11-24T02:24:12.388Z,93.71
2022-11-24T02:27:15.291Z,93.74
2022-11-24T02:30:18.222Z,93.48
2022-11-24T02:33:22.497Z,93.49
2022-11-24T02:36:25.285Z,93.43
2022-11-24T02:39:28.290Z,93.27
2022-11-24T02:42:36.164Z,93.43
2022-11-24T02:45:39.485Z,93.37
2022-11-24T02:48:42.131Z,93.39
2022-11-24T02:51:45.122Z,93.08
2022-11-24T02:54:49.814Z,92.95
2022-11-24T02:57:52.765Z,92.84
2022-11-24T03:00:57.449Z,92.55
2022-11-24T03:04:00.671Z,92.47
2022-11-24T03:07:03.419Z,92.30
2022-11-24T03:10:07.928Z,92.60
2022-11-24T03:13:10.814Z,92.44
2022-11-24T03:16:13.747Z,92.22
2022-11-24T03:19:16.429Z,91.76
2022-11-24T03:22:20.950Z,92.09
2022-11-24T03:25:23.863Z,91.29
2022-11-24T03:28:28.179Z,91.37
2022-11-24T03:31:30.857Z,91.28
2022-11-24T03:34:34.295Z,90.72
2022-11-24T03:37:37.521Z,91.71
2022-11-24T03:40:40.512Z,91.16
2022-11-24T03:43:44.295Z,91.16
2022-11-24T03:46:47.492Z,91.18
2022-11-24T03:49:50.128Z,91.13
2022-11-24T03:52:53.222Z,90.61
2022-11-24T03:55:56.355Z,90.92
2022-11-24T03:58:59.318Z,91.20
2022-11-24T04:02:02.053Z,91.03
2022-11-24T04:05:05.947Z,90.85
2022-11-24T04:08:08.956Z,91.29
2022-11-24T04:11:31.752Z,91.38
2022-11-24T04:14:34.927Z,91.60
2022-11-24T04:17:38.296Z,91.57
2022-11-24T04:20:42.195Z,91.70
2022-11-24T04:23:45.122Z,92.02
2022-11-24T04:26:47.870Z,91.80
2022-11-24T04:29:51.326Z,92.52
2022-11-24T04:32:55.346Z,92.65
2022-11-24T04:35:58.221Z,92.27
2022-11-24T04:39:23.768Z,92.10
2022-11-24T04:42:23.656Z,91.85
2022-11-24T04:45:26.516Z,91.53
2022-11-24T04:48:29.902Z,91.30
2022-11-24T04:51:32.541Z,91.15
2022-11-24T04:54:35.796Z,91.01
2022-11-24T04:57:39.300Z,91.27
2022-11-24T05:00:42.236Z,91.04
2022-11-24T05:03:44.887Z,91.01
2022-11-24T05:06:48.074Z,90.82
2022-11-24T05:10:09.069Z,90.77
2022-11-24T05:13:13.239Z,90.46
2022-11-24T05:16:16.020Z,90.41
2022-11-24T05:19:19.020Z,89.95
2022-11-24T05:22:22.881Z,89.91
2022-11-24T05:25:25.725Z,89.87
2022-11-24T05:28:28.782Z,90.05
2022-11-24T05:31:31.715Z,89.99
2022-11-24T05:34:36.178Z,89.87
2022-11-24T05:37:39.302Z,89.32
2022-11-24T05:40:44.173Z,89.48
2022-11-24T05:43:47.046Z,89.36
2022-11-24T05:46:52.841Z,89.64
2022-11-24T05:49:55.773Z,89.65
2022-11-24T05:53:03.134Z,89.91
2022-11-24T05:56:06.390Z,89.76
2022-11-24T05:59:10.135Z,90.21
2022-11-24T06:02:20.915Z,90.12
2022-11-24T06:05:23.911Z,90.31
2022-11-24T06:08:30.905Z,90.01
2022-11-24T06:11:34.294Z,89.97
2022-11-24T06:14:37.165Z,90.16
2022-11-24T06:17:40.433Z,90.25
2022-11-24T06:20:53.136Z,90.18
2022-11-24T06:24:06.344Z,90.30
2022-11-24T06:27:09.042Z,90.61
2022-11-24T06:30:12.748Z,90.64
2022-11-24T06:33:15.390Z,90.62
2022-11-24T06:36:18.372Z,91.01
2022-11-24T06:39:20.881Z,91.02
2022-11-24T06:42:23.819Z,91.27
2022-11-24T06:45:26.564Z,91.13
2022-11-24T06:48:30.191Z,90.91
2022-11-24T06:51:32.750Z,90.76
2022-11-24T06:54:35.949Z,90.68
2022-11-24T06:57:38.883Z,90.57
2022-11-24T07:00:42.112Z,90.36
2022-11-24T07:03:45.568Z,90.02
2022-11-24T07:06:48.469Z,90.34
2022-11-24T07:09:51.066Z,90.35
2022-11-24T07:12:53.988Z,90.32
2022-11-24T07:15:56.637Z,90.37
2022-11-24T07:19:00.021Z,90.22
2022-11-24T07:22:02.880Z,90.20
2022-11-24T07:25:07.637Z,90.12
2022-11-24T07:28:10.208Z,90.20
2022-11-24T07:31:15.859Z,89.81
2022-11-24T07:34:18.523Z,89.54
2022-11-24T07:37:22.842Z,89.63
2022-11-24T07:40:27.494Z,89.61
2022-11-24T07:43:36.297Z,89.33
2022-11-24T07:46:39.297Z,89.37
2022-11-24T07:49:42.206Z,89.19
2022-11-24T07:52:44.735Z,89.06
2022-11-24T07:56:00.470Z,89.14
2022-11-24T07:59:03.750Z,88.66
2022-11-24T08:02:06.780Z,89.24
2022-11-24T08:05:09.695Z,89.26
2022-11-24T08:08:12.343Z,88.77
2022-11-24T08:11:17.908Z,88.88
2022-11-24T08:14:20.643Z,88.60
2022-11-24T08:17:23.591Z,89.00
2022-11-24T08:20:26.234Z,88.52
2022-11-24T08:23:30.139Z,88.57
2022-11-24T08:26:32.706Z,88.82
2022-11-24T08:29:35.546Z,88.97
2022-11-24T08:32:38.179Z,88.99
2022-11-24T08:35:41.027Z,89.48
2022-11-24T08:38:44.881Z,89.55
2022-11-24T08:41:48.003Z,89.43
2022-11-24T08:44:58.539Z,89.56
2022-11-24T08:48:01.811Z,89.30
2022-11-24T08:51:13.108Z,89.33
2022-11-24T08:54:18.774Z,89.52
2022-11-24T08:57:22.012Z,89.94
2022-11-24T09:00:25.297Z,89.67
2022-11-24T09:03:27.885Z,89.69
2022-11-24T09:06:32.050Z,89.54
2022-11-24T09:09:34.660Z,89.17
2022-11-24T09:12:37.537Z,89.46
2022-11-24T09:15:40.032Z,89.08
2022-11-24T09:18:43.400Z,89.35
2022-11-24T09:21:46.003Z,88.35
2022-11-24T09:24:48.966Z,88.18
2022-11-24T09:27:51.730Z,86.87
2022-11-24T09:30:54.720Z,87.53
2022-11-24T09:33:57.933Z,86.68
2022-11-24T09:37:01.637Z,86.38
2022-11-24T09:40:04.714Z,86.16
2022-11-24T09:43:20.239Z,86.08
2022-11-24T09:46:36.207Z,85.57
2022-11-24T09:50:14.998Z,82.02
2022-11-24T09:53:26.755Z,79.38
2022-11-24T09:56:34.615Z,78.88
2022-11-24T09:59:37.925Z,81.34
2022-11-24T10:02:40.973Z,80.79
2022-11-24T10:05:45.498Z,81.58
2022-11-24T10:09:06.780Z,81.11
2022-11-24T10:12:35.716Z,80.99
2022-11-24T10:15:49.102Z,79.84
2022-11-24T10:19:05.036Z,80.24
2022-11-24T10:22:39.343Z,81.55
2022-11-24T10:25:51.144Z,81.61
2022-11-24T10:28:56.069Z,82.21
2022-11-24T10:31:59.251Z,82.31
2022-11-24T10:35:18.163Z,81.86
2022-11-24T10:38:32.290Z,81.36
2022-11-24T10:42:05.863Z,81.54
2022-11-24T10:45:15.214Z,81.40
2022-11-24T10:48:24.463Z,81.22
2022-11-24T10:52:02.259Z,81.41
2022-11-24T10:55:06.313Z,80.81
2022-11-24T10:58:17.202Z,79.25
2022-11-24T11:01:28.835Z,78.98
2022-11-24T11:04:34.914Z,79.15
2022-11-24T11:07:37.544Z,79.09
2022-11-24T11:10:41.871Z,79.24
2022-11-24T11:14:03.082Z,79.79
2022-11-24T11:17:45.411Z,79.90
2022-11-24T11:20:54.537Z,79.76
2022-11-24T11:23:58.308Z,79.62
2022-11-24T11:27:03.357Z,79.28
2022-11-24T11:34:09.548Z,78.98
2022-11-24T11:37:18.362Z,78.37
2022-11-24T11:43:36.172Z,76.64
2022-11-24T11:46:38.716Z,76.04
2022-11-24T11:49:41.714Z,73.19
2022-11-24T11:53:02.596Z,73.07
2022-11-24T11:56:26.741Z,73.38
2022-11-24T12:00:10.244Z,71.83
2022-11-24T12:03:36.289Z,69.45
2022-11-24T12:06:48.193Z,67.76
2022-11-24T12:09:57.652Z,63.87
2022-11-24T12:13:26.723Z,65.57
2022-11-24T12:16:32.611Z,69.72
2022-11-24T12:19:49.146Z,71.56
2022-11-24T12:23:36.635Z,72.25
2022-11-24T12:26:46.607Z,73.85
2022-11-24T12:30:25.706Z,74.61
2022-11-24T12:33:52.309Z,75.76
2022-11-24T12:37:27.992Z,76.18
2022-11-24T12:40:35.970Z,77.41
2022-11-24T12:43:42.105Z,76.15
2022-11-24T12:47:03.111Z,76.50
2022-11-24T12:50:17.831Z,73.28
2022-11-24T12:53:25.844Z,72.13
2022-11-24T12:56:58.082Z,72.56
2022-11-24T13:00:14.636Z,73.51
2022-11-24T13:03:53.105Z,72.89
2022-11-24T13:07:26.240Z,73.36
2022-11-24T13:10:57.328Z,73.51
2022-11-24T13:14:12.203Z,73.60
2022-11-24T13:17:50.269Z,73.73
2022-11-24T13:20:57.236Z,73.78
2022-11-24T13:24:04.771Z,72.56
2022-11-24T13:27:13.575Z,72.83
2022-11-24T13:30:35.128Z,73.63
2022-11-24T13:33:39.164Z,74.43
2022-11-24T13:36:53.829Z,74.87
2022-11-24T13:39:58.732Z,75.46
2022-11-24T13:43:02.837Z,76.09
2022-11-24T13:46:09.966Z,76.28
2022-11-24T13:49:14.769Z,76.53
2022-11-24T13:52:36.228Z,77.05
2022-11-24T13:55:42.051Z,77.89
2022-11-24T13:58:50.654Z,78.52
2022-11-24T14:01:57.915Z,78.90
2022-11-24T14:05:01.063Z,79.71
2022-11-24T14:08:06.511Z,80.20
2022-11-24T14:11:19.257Z,80.54
2022-11-24T14:14:22.519Z,79.97
2022-11-24T14:17:28.624Z,80.82
2022-11-24T14:20:31.660Z,80.63
2022-11-24T14:23:34.629Z,81.18
2022-11-24T14:26:41.828Z,81.56
2022-11-24T14:29:59.499Z,81.94
2022-11-24T14:33:04.105Z,82.43
2022-11-24T14:36:15.531Z,82.13
2022-11-24T14:39:20.429Z,82.06
2022-11-24T14:42:25.689Z,82.05
2022-11-24T14:45:28.529Z,82.21
2022-11-24T14:48:36.016Z,82.68
2022-11-24T14:51:44.952Z,82.56
2022-11-24T14:54:54.725Z,82.53
2022-11-24T14:57:58.580Z,83.30
2022-11-24T15:01:10.270Z,83.58
2022-11-24T15:04:46.277Z,85.32
2022-11-24T15:07:49.107Z,85.71
2022-11-24T15:10:58.250Z,85.52
2022-11-24T15:14:01.247Z,86.61
2022-11-24T15:17:04.762Z,86.32
2022-11-24T15:20:32.277Z,87.19
2022-11-24T15:23:36.674Z,86.75
2022-11-24T15:26:42.110Z,86.78
2022-11-24T15:29:45.069Z,87.55
2022-11-24T15:32:58.542Z,87.70
2022-11-24T15:36:01.449Z,87.70
2022-11-24T15:39:04.563Z,88.09
2022-11-24T15:42:11.866Z,87.12
2022-11-24T15:45:14.887Z,87.83
2022-11-24T15:48:18.275Z,87.62
2022-11-24T15:51:24.166Z,87.15
2022-11-24T15:54:27.847Z,87.77
2022-11-24T15:57:34.566Z,88.57
2022-11-24T16:00:38.018Z,88.51
2022-11-24T16:03:49.080Z,88.12
2022-11-24T16:06:52.195Z,88.07
2022-11-24T16:09:55.105Z,87.66
2022-11-24T16:12:57.916Z,87.92
2022-11-24T16:16:01.304Z,87.37
2022-11-24T16:19:04.182Z,87.42
2022-11-24T16:22:09.098Z,87.10
2022-11-24T16:25:12.729Z,87.86
2022-11-24T16:28:17.327Z,87.59
2022-11-24T16:31:20.306Z,87.62
2022-11-24T16:34:23.388Z,88.01
2022-11-24T16:37:26.358Z,88.19
2022-11-24T16:40:29.750Z,89.23
2022-11-24T16:43:32.506Z,88.08
2022-11-24T16:46:35.517Z,87.79
2022-11-24T16:49:38.664Z,87.75
2022-11-24T16:52:41.993Z,87.18
2022-11-24T16:55:45.099Z,88.25
2022-11-24T16:58:48.556Z,88.37
2022-11-24T17:01:51.290Z,88.20
2022-11-24T17:04:54.291Z,87.71
2022-11-24T17:07:57.404Z,88.08
2022-11-24T17:11:21.668Z,89.07
2022-11-24T17:14:26.032Z,88.72
2022-11-24T17:17:29.148Z,88.57
2022-11-24T17:20:31.887Z,89.28
2022-11-24T17:23:37.173Z,88.63
2022-11-24T17:26:42.498Z,88.70
2022-11-24T17:29:49.405Z,87.83
2022-11-24T17:32:56.592Z,88.16
2022-11-24T17:36:05.123Z,87.74
2022-11-24T17:39:08.242Z,87.67
2022-11-24T17:42:11.501Z,87.53
2022-11-24T17:45:14.553Z,87.70
2022-11-24T17:48:17.539Z,88.00
2022-11-24T17:51:22.706Z,88.16
2022-11-24T17:57:49.051Z,88.46
2022-11-24T18:00:52.451Z,88.94
2022-11-24T18:03:55.478Z,88.34
2022-11-24T18:07:01.026Z,89.15
2022-11-24T18:10:04.873Z,89.23
2022-11-24T18:13:18.207Z,88.95
2022-11-24T18:16:35.218Z,89.42
2022-11-24T18:19:43.049Z,90.44
2022-11-24T18:26:12.228Z,91.45
2022-11-24T18:29:15.627Z,92.98
2022-11-24T18:32:18.761Z,92.33
2022-11-24T18:35:22.258Z,92.75
2022-11-24T18:38:25.978Z,92.66
2022-11-24T18:41:29.359Z,92.56
2022-11-24T18:44:32.693Z,92.48
2022-11-24T18:47:36.862Z,91.65
2022-11-24T18:50:39.916Z,91.35
2022-11-24T18:53:45.566Z,90.72
2022-11-24T18:56:48.597Z,90.69
2022-11-24T18:59:52.423Z,90.36
2022-11-24T19:02:55.695Z,89.27
2022-11-24T19:06:04.629Z,89.69
2022-11-24T19:09:20.547Z,89.68
2022-11-24T19:12:24.998Z,89.63
2022-11-24T19:15:28.147Z,89.87
2022-11-24T19:18:32.004Z,89.76
2022-11-24T19:21:38.179Z,89.94
2022-11-24T19:24:42.789Z,89.87
2022-11-24T19:27:45.971Z,89.35
2022-11-24T19:30:49.415Z,89.71
2022-11-24T19:33:54.731Z,90.17
2022-11-24T19:36:58.448Z,91.01
2022-11-24T19:40:02.964Z,90.60
2022-11-24T19:43:06.843Z,90.71
2022-11-24T19:46:13.024Z,90.13
2022-11-24T19:49:17.123Z,89.96
2022-11-24T19:52:20.039Z,89.52
2022-11-24T19:55:22.994Z,89.54
2022-11-24T20:05:01.502Z,90.10
2022-11-24T20:08:05.904Z,89.62
2022-11-24T20:11:13.350Z,89.35
2022-11-24T20:14:20.941Z,90.09
2022-11-24T20:17:30.226Z,90.27
2022-11-24T20:20:33.094Z,90.46
2022-11-24T20:23:37.216Z,90.51
2022-11-24T20:26:45.278Z,90.24
2022-11-24T20:29:48.378Z,91.13
2022-11-24T20:32:51.235Z,91.97
2022-11-24T20:35:54.901Z,91.43
2022-11-24T20:39:01.036Z,91.35
2022-11-24T20:42:04.535Z,91.22
2022-11-24T20:45:08.194Z,91.03
2022-11-24T20:48:15.705Z,90.61
2022-11-24T20:51:25.961Z,91.20
2022-11-24T20:54:29.603Z,92.58
2022-11-24T20:57:32.901Z,92.47
2022-11-24T21:00:36.387Z,92.25
2022-11-24T21:03:43.266Z,91.63
2022-11-24T21:06:47.573Z,91.57
2022-11-24T21:09:50.237Z,90.73
2022-11-24T21:12:54.659Z,90.39
2022-11-24T21:15:57.448Z,90.63
2022-11-24T21:19:04.694Z,91.03
2022-11-24T21:22:08.797Z,91.26
2022-11-24T21:25:12.304Z,91.31
2022-11-24T21:28:16.375Z,91.24
2022-11-24T21:31:21.895Z,92.41
2022-11-24T21:34:24.592Z,92.98
2022-11-24T21:37:27.397Z,92.85
2022-11-24T21:40:30.584Z,93.09
2022-11-24T21:43:36.303Z,93.83
2022-11-24T21:46:44.940Z,93.72
2022-11-24T21:49:48.896Z,94.12
2022-11-24T21:52:51.816Z,94.17
2022-11-24T21:55:56.303Z,93.43
2022-11-24T21:58:59.018Z,93.32
2022-11-24T22:02:02.017Z,92.95
2022-11-24T22:05:05.129Z,92.45
2022-11-24T22:08:07.783Z,92.97
2022-11-24T22:11:19.784Z,92.94
2022-11-24T22:14:22.428Z,92.91
2022-11-24T22:17:25.383Z,92.64
2022-11-24T22:20:27.986Z,92.66
2022-11-24T22:23:32.444Z,93.19
2022-11-24T22:26:36.031Z,92.96
2022-11-24T22:29:38.909Z,92.49
2022-11-24T22:32:41.606Z,92.07
2022-11-24T22:35:44.458Z,91.63
2022-11-24T22:38:47.711Z,91.41
2022-11-24T22:41:50.929Z,91.70
2022-11-24T22:44:53.553Z,90.96
2022-11-24T22:47:56.664Z,90.75
2022-11-24T22:51:20.066Z,90.72
2022-11-24T22:54:22.981Z,90.35
2022-11-24T22:57:25.715Z,90.07
2022-11-24T23:00:28.559Z,89.58
2022-11-24T23:03:32.512Z,89.48
2022-11-24T23:06:35.474Z,89.90
2022-11-24T23:09:38.146Z,89.84
2022-11-24T23:12:41.342Z,89.75
2022-11-24T23:15:44.018Z,89.25
2022-11-24T23:18:53.796Z,90.18
2022-11-24T23:21:56.756Z,90.00
2022-11-24T23:24:59.682Z,90.31
2022-11-24T23:28:02.370Z,90.58
2022-11-24T23:31:11.466Z,91.40
2022-11-24T23:34:14.103Z,91.62
2022-11-24T23:37:17.037Z,90.94
2022-11-24T23:40:19.702Z,90.50
2022-11-24T23:43:22.690Z,90.45
2022-11-24T23:46:26.960Z,89.40
2022-11-24T23:49:30.234Z,89.12
2022-11-24T23:52:32.885Z,89.89
2022-11-24T23:55:36.596Z,89.77
2022-11-24T23:58:39.209Z,90.14
